Huvudsida
METAR-TAF:

METAR-TAF

Flygplatser :

San Antonio del Táchira, Venezuela

latitud: 07-51N, longitud: 072-27W, höjd: 377 m

Aktuellt väderrapport

Denna rapport gjordes för 29 timmar och 55 minuter sedan, klockan 16:00 UTC
Temperatur 31°C
Tryck 1017 hPa
Sikt 10 km eller mer
Få moln på en höjd av 2000 ft
Spridda moln på en höjd av 9000 ft

METAR: SVSA 171600Z /////KT 9999 FEW020 SCT090 31/// Q1017

Tid: 17:55 (21:55 UTC)

Väderprognos

Denna rapport gjordes för 23 timmar och 55 minuter sedan, klockan 22:00 UTC
Prognos gäller från 21 kl. 00 UTC till 22 kl. 00 UTC
Vind 5 kt från syd/sydost
Sikt 10 km eller mer
Brutna moln på en höjd av 2000 ft
Blir
från 21 kl. 02 UTC till 21 kl. 06 UTC
Vind 3 kt från ost
Sikt: 9000 m
Brutna moln på en höjd av 2000 ft
duggregn

TAF: SVSA 202200Z 2100/2200 15005KT 9999 BKN020 TX34/19Z TN24/10Z BECMG 2102/2106 09003KT 9000 DZ BKN020

Aktuella väderrapporter och prognoser från 4000 flygplatser (METAR- och TAF-rapporter).

De tillgängliga stationerna syns som gula och röda prickar på kartan.

För musen över prickarna för att se namnen på stationerna.

Klicka sedan för att få väderrapporter och prognoser.

För att ändra kartan: Klicka på de gröna knapparna med ett svart kors på för att zooma in; den gröna knappen med ett streck på för att zooma ut; eller på de gröna pilarna för angränsande kartor.


METAR-TAF: